Time;durP1;ratioP1;P1;durP2;ratioP2;P2;SDS_P1;SDS_P2;PMS_P1;PMS_P2;Temp;Humidity;BMP_temperature;BMP_pressure;BME280_temperature;BME280_humidity;BME280_pressure;Samples;Min_cycle;Max_cycle;Signal;HPM_P1;HPM_P2
2022/04/28 00:00:00;;;;;;;12.93;10.65;;;;;;;8.54;57.99;101855.34;5026598;28;20025;-24
2022/04/28 00:02:26;;;;;;;12.13;10.85;;;;;;;8.49;58.04;101854.34;5028286;28;20032;-24
2022/04/28 00:04:51;;;;;;;12.23;10.55;;;;;;;8.47;58.29;101862.19;5028292;28;20021;-24
2022/04/28 00:07:16;;;;;;;12.48;11.07;;;;;;;8.41;58.51;101861.19;5026941;28;20393;-24
2022/04/28 00:09:41;;;;;;;12.63;10.38;;;;;;;8.38;58.39;101853.25;5026782;28;20152;-24
2022/04/28 00:12:08;;;;;;;15.35;11.38;;;;;;;8.36;58.35;101854.97;5027393;28;20496;-25
2022/04/28 00:14:34;;;;;;;13.68;10.68;;;;;;;8.31;58.44;101866.25;5026166;28;20029;-25
2022/04/28 00:16:59;;;;;;;14.30;10.73;;;;;;;8.29;58.55;101857.47;5024222;28;20075;-24
2022/04/28 00:19:25;;;;;;;12.55;10.95;;;;;;;8.26;58.51;101862.66;5008499;28;20433;-24
2022/04/28 00:21:50;;;;;;;12.13;10.50;;;;;;;8.24;58.14;101869.66;5026433;28;20037;-24
2022/04/28 00:24:15;;;;;;;13.85;10.68;;;;;;;8.18;58.51;101859.91;5029812;28;20057;-25
2022/04/28 00:26:41;;;;;;;12.27;11.05;;;;;;;8.17;58.62;101867.75;5028618;28;20061;-26
2022/04/28 00:29:06;;;;;;;12.88;11.48;;;;;;;8.14;58.51;101867.69;5029227;28;20112;-25
2022/04/28 00:31:31;;;;;;;12.10;10.52;;;;;;;8.09;58.47;101865.84;5023565;28;20036;-24
2022/04/28 00:33:57;;;;;;;13.68;11.55;;;;;;;8.06;58.71;101860.53;5026401;28;20025;-25
2022/04/28 00:36:22;;;;;;;14.65;11.45;;;;;;;8.03;58.76;101865.72;5026885;28;20025;-25
2022/04/28 00:38:47;;;;;;;14.95;11.45;;;;;;;7.99;59.03;101868.25;5024546;28;20484;-24
2022/04/28 00:41:13;;;;;;;14.55;11.50;;;;;;;7.96;58.95;101869.97;5030313;28;20029;-24
2022/04/28 00:43:51;;;;;;;13.65;11.82;;;;;;;7.94;58.74;101870.78;5029397;28;20373;-26
2022/04/28 00:46:17;;;;;;;13.20;11.13;;;;;;;7.92;59.04;101869.88;5026981;28;20135;-24
2022/04/28 00:51:27;;;;;;;14.70;11.60;;;;;;;7.87;58.88;101879.41;5027453;28;20036;-24
2022/04/28 00:53:52;;;;;;;13.20;11.52;;;;;;;7.83;58.98;101875.78;5029274;28;20017;-26
2022/04/28 00:56:18;;;;;;;14.93;11.77;;;;;;;7.79;59.25;101868.72;5023488;28;20397;-24
2022/04/28 00:58:44;;;;;;;14.00;11.55;;;;;;;7.76;59.08;101872.16;5029109;28;20029;-24
2022/04/28 01:01:09;;;;;;;13.05;11.27;;;;;;;7.74;58.96;101870.34;5026617;28;20094;-28
2022/04/28 01:03:35;;;;;;;14.65;11.75;;;;;;;7.68;59.02;101865.84;5026239;28;20040;-24
2022/04/28 01:06:01;;;;;;;13.30;11.13;;;;;;;7.69;59.24;101870.25;5023375;28;20130;-26
2022/04/28 01:08:28;;;;;;;14.02;11.27;;;;;;;7.66;58.99;101867.56;5022121;28;20032;-26
2022/04/28 01:10:54;;;;;;;14.77;11.75;;;;;;;7.64;59.34;101862.25;5039658;28;20512;-24
2022/04/28 01:13:19;;;;;;;15.13;11.30;;;;;;;7.62;59.06;101870.97;5028948;28;20037;-26
2022/04/28 01:15:46;;;;;;;15.05;11.73;;;;;;;7.56;59.46;101866.47;5025107;28;20029;-24
2022/04/28 01:18:12;;;;;;;15.23;10.82;;;;;;;7.55;59.25;101868.22;5025888;28;20490;-24
2022/04/28 01:20:37;;;;;;;13.13;10.68;;;;;;;7.54;59.30;101882.16;5022101;28;20087;-25
2022/04/28 01:23:06;;;;;;;13.23;10.93;;;;;;;7.50;59.47;101875.09;5022635;28;20025;-24
2022/04/28 01:25:31;;;;;;;12.48;10.77;;;;;;;7.48;59.23;101876.81;5020352;28;20029;-25
2022/04/28 01:27:57;;;;;;;13.82;10.95;;;;;;;7.45;59.57;101876.72;5020065;28;20045;-24
2022/04/28 01:30:23;;;;;;;14.88;11.30;;;;;;;7.42;59.60;101877.53;5018008;28;20080;-29
2022/04/28 01:32:49;;;;;;;15.05;11.00;;;;;;;7.41;59.41;101874.88;5018139;28;20025;-24
2022/04/28 01:35:14;;;;;;;11.07;9.77;;;;;;;7.37;59.21;101888.78;5022350;28;20078;-26
2022/04/28 01:37:40;;;;;;;12.15;10.65;;;;;;;7.36;59.14;101889.63;5003909;28;20049;-24
2022/04/28 01:40:11;;;;;;;11.60;10.40;;;;;;;7.34;59.66;101888.72;5026800;28;20104;-23
2022/04/28 01:42:37;;;;;;;13.43;11.02;;;;;;;7.31;59.59;101890.41;5025321;28;20538;-25
2022/04/28 01:45:06;;;;;;;13.98;10.77;;;;;;;7.29;59.07;101901.72;5029315;28;20045;-25
2022/04/28 01:47:31;;;;;;;12.95;10.40;;;;;;;7.26;59.38;101897.28;5042963;28;20056;-27
2022/04/28 01:49:56;;;;;;;11.65;10.20;;;;;;;7.23;59.32;101891.94;5027919;28;20470;-24
2022/04/28 01:55:06;;;;;;;11.55;10.35;;;;;;;7.19;59.39;101895.34;5026469;28;20071;-24
2022/04/28 01:57:31;;;;;;;12.55;11.13;;;;;;;7.17;59.49;101891.81;5026060;28;20029;-24
2022/04/28 02:00:00;;;;;;;13.02;10.68;;;;;;;7.14;59.46;101892.59;5031900;28;20366;-23
2022/04/28 02:02:26;;;;;;;16.02;11.63;;;;;;;7.11;59.91;101896.91;5029003;28;20500;-25
2022/04/28 02:04:52;;;;;;;11.82;10.32;;;;;;;7.10;60.30;101901.25;5032060;28;20033;-23
2022/04/28 02:07:17;;;;;;;14.15;10.93;;;;;;;7.09;59.68;101899.50;5028794;28;20116;-24
2022/04/28 02:09:44;;;;;;;12.50;11.00;;;;;;;7.05;59.72;101893.28;5028450;28;20460;-26
2022/04/28 02:12:10;;;;;;;12.70;10.48;;;;;;;7.06;59.77;101899.41;5030245;28;20025;-23
2022/04/28 02:14:36;;;;;;;15.77;11.40;;;;;;;7.02;60.10;101902.81;5027916;28;20079;-23
2022/04/28 02:17:04;;;;;;;14.18;11.13;;;;;;;7.02;59.76;101902.81;5031867;28;20259;-23
2022/04/28 02:19:29;;;;;;;12.75;10.48;;;;;;;6.95;59.66;101896.50;5028017;28;20033;-24
2022/04/28 02:21:55;;;;;;;12.45;10.18;;;;;;;6.98;59.55;101904.47;5028140;28;20416;-27
2022/04/28 02:24:21;;;;;;;12.75;10.90;;;;;;;6.97;59.75;101900.06;5027690;28;20102;-25
2022/04/28 02:26:46;;;;;;;13.90;10.70;;;;;;;6.95;59.82;101907.00;5028518;28;20026;-25
2022/04/28 02:29:12;;;;;;;14.48;10.82;;;;;;;6.93;60.15;101898.19;5010393;28;20033;-25
2022/04/28 02:31:37;;;;;;;14.93;10.07;;;;;;;6.92;59.92;101906.94;5028067;28;20025;-25
2022/04/28 02:34:02;;;;;;;11.57;9.90;;;;;;;6.91;60.41;101902.53;5029448;28;20049;-25
2022/04/28 02:36:28;;;;;;;11.13;8.98;;;;;;;6.90;60.01;101904.25;5027399;28;20374;-25
2022/04/28 02:38:53;;;;;;;11.82;9.98;;;;;;;6.88;60.10;101905.06;5028534;28;20482;-25
2022/04/28 02:41:21;;;;;;;12.95;10.15;;;;;;;6.88;60.31;101911.22;5031226;28;20066;-25
2022/04/28 02:43:48;;;;;;;14.73;10.82;;;;;;;6.86;60.10;101907.66;5031266;28;20017;-25
2022/04/28 02:46:14;;;;;;;12.98;10.00;;;;;;;6.85;60.25;101910.22;5025816;28;20033;-24
2022/04/28 02:48:39;;;;;;;12.45;10.10;;;;;;;6.83;61.01;101907.56;5026861;28;20466;-24
2022/04/28 02:51:06;;;;;;;11.27;9.70;;;;;;;6.83;60.68;101904.06;5030130;28;20030;-24
2022/04/28 02:53:31;;;;;;;12.43;10.50;;;;;;;6.82;60.44;101915.38;5029043;28;20017;-24
2022/04/28 02:55:56;;;;;;;13.25;10.68;;;;;;;6.81;60.61;101914.53;5028530;28;20124;-24
2022/04/28 02:58:22;;;;;;;11.98;10.05;;;;;;;6.80;60.80;101907.47;5024540;28;20025;-24
2022/04/28 03:00:47;;;;;;;11.90;10.70;;;;;;;6.79;60.48;101911.84;5029734;28;20543;-25
2022/04/28 03:03:12;;;;;;;13.98;10.40;;;;;;;6.79;61.04;101905.72;5028314;28;20041;-25
2022/04/28 03:11:06;;;;;;;12.68;9.75;;;;;;;6.77;60.43;101913.53;5028096;28;20113;-26
2022/04/28 03:13:32;;;;;;;11.50;10.20;;;;;;;6.76;60.87;101906.53;5024668;28;20148;-25
2022/04/28 03:15:57;;;;;;;12.98;9.70;;;;;;;6.76;61.05;101906.53;5027960;28;20024;-26
2022/04/28 03:18:23;;;;;;;13.25;9.90;;;;;;;6.77;61.24;101913.53;5032595;28;20017;-26
2022/04/28 03:20:48;;;;;;;13.07;9.70;;;;;;;6.75;61.01;101914.34;5029489;28;20462;-26
2022/04/28 03:23:14;;;;;;;13.20;10.32;;;;;;;6.75;61.44;101911.72;5031779;28;20029;-26
2022/04/28 03:25:39;;;;;;;14.55;9.82;;;;;;;6.75;61.41;101911.72;5031395;28;20025;-26
2022/04/28 03:28:05;;;;;;;13.18;9.75;;;;;;;6.74;61.51;101917.81;5030156;28;20080;-25
2022/04/28 03:30:31;;;;;;;11.02;9.23;;;;;;;6.73;61.00;101914.31;5010636;28;20063;-26
2022/04/28 03:32:56;;;;;;;12.75;9.93;;;;;;;6.74;61.70;101913.44;5029745;28;20029;-26
2022/04/28 03:35:21;;;;;;;12.85;10.77;;;;;;;6.74;61.08;101918.69;5030331;28;20493;-26
2022/04/28 03:37:47;;;;;;;15.50;9.73;;;;;;;6.74;60.99;101918.69;5024907;28;20036;-25
2022/04/28 03:40:12;;;;;;;13.35;9.35;;;;;;;6.73;61.14;101922.16;5031068;28;20036;-26
2022/04/28 03:42:38;;;;;;;13.30;9.73;;;;;;;6.72;61.01;101919.50;5023350;28;20065;-26
2022/04/28 03:45:03;;;;;;;10.32;9.07;;;;;;;6.73;61.36;101929.16;5028123;28;20498;-26
2022/04/28 03:47:32;;;;;;;14.60;10.50;;;;;;;6.73;61.23;101926.53;5031335;28;20025;-26
2022/04/28 03:49:58;;;;;;;12.73;9.82;;;;;;;6.74;61.54;101921.31;5029752;28;20029;-26
2022/04/28 03:52:23;;;;;;;12.68;9.73;;;;;;;6.75;61.34;101935.31;5028591;28;20040;-26
2022/04/28 03:54:49;;;;;;;12.20;9.48;;;;;;;6.74;61.61;101929.19;5044344;28;20513;-26
2022/04/28 03:57:14;;;;;;;14.38;9.32;;;;;;;6.73;61.04;101927.41;5029429;28;20762;-26
2022/04/28 03:59:39;;;;;;;13.77;9.75;;;;;;;6.74;61.39;101939.66;5033813;28;21087;-26
2022/04/28 04:02:05;;;;;;;10.38;8.27;;;;;;;6.74;61.09;101929.19;5029646;28;20466;-26
2022/04/28 04:04:30;;;;;;;12.70;9.63;;;;;;;6.76;61.06;101932.75;5029619;28;20519;-25
2022/04/28 04:06:55;;;;;;;12.02;9.65;;;;;;;6.77;61.52;101945.00;5031563;28;20032;-26
2022/04/28 04:09:21;;;;;;;15.80;9.50;;;;;;;6.77;61.51;101945.00;5043510;28;20029;-26
2022/04/28 04:11:46;;;;;;;11.32;8.82;;;;;;;6.77;61.58;101945.00;5027899;28;20496;-26
2022/04/28 04:14:11;;;;;;;12.60;8.77;;;;;;;6.76;61.27;101943.25;5026159;28;20025;-26
2022/04/28 04:16:37;;;;;;;10.35;8.60;;;;;;;6.76;61.45;101943.25;5028256;28;20031;-26
2022/04/28 04:19:02;;;;;;;11.85;9.88;;;;;;;6.78;61.51;101956.38;5029464;28;20445;-26
2022/04/28 04:21:28;;;;;;;11.32;8.82;;;;;;;6.76;61.27;101953.72;5028094;28;20029;-26
2022/04/28 04:23:53;;;;;;;11.27;9.48;;;;;;;6.78;61.18;101952.03;5028481;28;20049;-25
2022/04/28 04:26:18;;;;;;;11.57;9.05;;;;;;;6.79;61.23;101958.16;5026405;28;20029;-26
2022/04/28 04:28:44;;;;;;;13.30;9.10;;;;;;;6.79;61.53;101958.16;5028932;28;20025;-25
2022/04/28 04:33:53;;;;;;;11.98;9.23;;;;;;;6.78;61.48;101972.13;5031842;28;20067;-26
2022/04/28 04:36:18;;;;;;;11.60;9.00;;;;;;;6.78;61.20;101957.28;5010785;28;20432;-26
2022/04/28 04:38:44;;;;;;;11.05;9.05;;;;;;;6.78;61.32;101957.28;5027322;28;20021;-25
2022/04/28 04:41:11;;;;;;;11.27;9.98;;;;;;;6.78;61.06;101957.28;5028902;28;20065;-26
2022/04/28 04:43:38;;;;;;;11.48;9.32;;;;;;;6.78;61.70;101965.16;5028093;28;20068;-26
2022/04/28 04:46:03;;;;;;;11.27;9.57;;;;;;;6.78;61.34;101966.88;5029111;28;20092;-25
2022/04/28 04:48:29;;;;;;;12.98;9.68;;;;;;;6.78;61.51;101978.28;5028097;28;20500;-25
2022/04/28 04:50:55;;;;;;;11.30;9.05;;;;;;;6.79;61.59;101973.91;5028488;28;20013;-26
2022/04/28 04:53:20;;;;;;;13.07;10.05;;;;;;;6.77;61.01;101971.22;5029051;28;20027;-26
2022/04/28 04:55:45;;;;;;;10.25;8.82;;;;;;;6.78;61.32;101978.28;5029530;28;20085;-26
2022/04/28 04:58:11;;;;;;;12.20;9.32;;;;;;;6.78;60.92;101978.28;5030281;28;20052;-26
2022/04/28 05:00:36;;;;;;;10.95;8.80;;;;;;;6.79;61.17;101973.91;5027174;28;20033;-24
2022/04/28 05:03:01;;;;;;;11.27;9.32;;;;;;;6.80;61.80;101978.28;5010730;28;20127;-26
2022/04/28 05:05:27;;;;;;;12.15;9.35;;;;;;;6.78;61.02;101978.28;5030214;28;20107;-25
2022/04/28 05:07:52;;;;;;;11.50;8.95;;;;;;;6.79;61.40;101985.28;5025362;28;20921;-26
2022/04/28 05:10:18;;;;;;;10.45;9.20;;;;;;;6.80;61.41;101987.06;5029815;28;20029;-26
2022/04/28 05:12:43;;;;;;;12.30;9.13;;;;;;;6.82;61.78;101984.47;5026890;28;20025;-26
2022/04/28 05:15:09;;;;;;;12.65;9.75;;;;;;;6.83;62.07;101982.75;5027693;28;20740;-26
2022/04/28 05:17:38;;;;;;;12.80;9.35;;;;;;;6.83;61.69;101986.25;5027196;28;20029;-24
2022/04/28 05:20:05;;;;;;;11.40;9.50;;;;;;;6.85;61.59;101989.81;5026305;28;20497;-24
2022/04/28 05:22:30;;;;;;;13.32;10.15;;;;;;;6.87;62.31;101997.72;5027383;28;20025;-24
2022/04/28 05:24:56;;;;;;;12.15;10.05;;;;;;;6.88;62.51;102002.13;5028221;28;20120;-26
2022/04/28 05:27:21;;;;;;;15.85;9.68;;;;;;;6.90;62.69;102003.03;5027146;28;20116;-24
2022/04/28 05:29:46;;;;;;;14.98;10.75;;;;;;;6.92;63.69;102002.25;5030029;28;20021;-25
2022/04/28 05:32:12;;;;;;;12.73;10.43;;;;;;;6.93;63.23;102000.50;5027540;28;20064;-24
2022/04/28 05:34:37;;;;;;;13.77;10.88;;;;;;;6.97;64.34;102010.22;5027763;28;20127;-24
2022/04/28 05:37:04;;;;;;;12.52;10.25;;;;;;;6.97;63.26;102010.22;5028149;28;20160;-23
2022/04/28 05:39:29;;;;;;;13.70;9.70;;;;;;;6.98;63.35;102012.03;5028639;28;20493;-24
2022/04/28 05:41:55;;;;;;;14.20;10.25;;;;;;;7.00;63.77;102015.56;5028814;28;20038;-25
2022/04/28 05:47:05;;;;;;;14.10;9.75;;;;;;;7.05;63.38;102021.84;5024598;28;20059;-23
2022/04/28 05:49:31;;;;;;;12.50;10.27;;;;;;;7.10;63.56;102026.31;5031186;28;20017;-29
2022/04/28 05:51:57;;;;;;;13.52;11.18;;;;;;;7.11;63.30;102029.00;5030361;28;20025;-24
2022/04/28 05:54:23;;;;;;;10.85;9.25;;;;;;;7.13;63.40;102034.25;5027235;28;20545;-24
2022/04/28 05:56:48;;;;;;;12.60;9.88;;;;;;;7.15;62.99;102032.56;5028628;28;20022;-25
2022/04/28 05:59:14;;;;;;;12.23;9.68;;;;;;;7.19;62.31;102032.69;5028965;28;20034;-24
2022/04/28 06:01:39;;;;;;;10.95;9.65;;;;;;;7.23;62.27;102035.41;5030479;28;20072;-23
2022/04/28 06:04:06;;;;;;;14.73;10.35;;;;;;;7.27;62.83;102037.28;5030314;28;20482;-23
2022/04/28 06:06:31;;;;;;;12.30;9.60;;;;;;;7.30;62.76;102034.69;5029193;28;20036;-29
2022/04/28 06:08:56;;;;;;;12.25;9.57;;;;;;;7.34;63.15;102035.69;5044374;28;20116;-24
2022/04/28 06:11:21;;;;;;;14.18;9.82;;;;;;;7.39;62.77;102039.31;5025851;28;20485;-24
2022/04/28 06:13:47;;;;;;;14.23;10.98;;;;;;;7.43;63.14;102033.28;5029650;28;20033;-24
2022/04/28 06:16:12;;;;;;;12.60;10.13;;;;;;;7.49;63.25;102036.09;5029100;28;20041;-23
2022/04/28 06:18:37;;;;;;;13.23;9.57;;;;;;;7.55;63.27;102049.38;5028196;28;20029;-23
2022/04/28 06:21:03;;;;;;;15.10;10.50;;;;;;;7.62;64.25;102036.38;5023860;28;20037;-24
2022/04/28 06:23:28;;;;;;;14.25;9.63;;;;;;;7.68;64.49;102045.28;5029445;28;20021;-24
2022/04/28 06:25:53;;;;;;;14.07;10.95;;;;;;;7.73;64.45;102044.56;5028356;28;20029;-24
2022/04/28 06:28:19;;;;;;;12.13;9.55;;;;;;;7.77;63.83;102042.03;5027569;28;20029;-24
2022/04/28 06:30:44;;;;;;;10.77;9.63;;;;;;;7.83;64.20;102046.53;5028119;28;20018;-24
2022/04/28 06:33:09;;;;;;;14.32;10.43;;;;;;;7.89;64.34;102045.78;5026747;28;20112;-27
2022/04/28 06:35:35;;;;;;;12.98;10.15;;;;;;;7.92;64.47;102059.00;5027104;28;20053;-24
2022/04/28 06:38:01;;;;;;;12.32;10.07;;;;;;;7.96;64.82;102056.50;5023829;28;20029;-24
2022/04/28 06:40:26;;;;;;;14.35;10.20;;;;;;;7.99;64.48;102057.41;5027328;28;20025;-26
2022/04/28 06:42:52;;;;;;;14.32;10.30;;;;;;;8.03;64.63;102060.16;5030160;28;20420;-24
2022/04/28 06:45:17;;;;;;;15.13;10.48;;;;;;;8.08;64.80;102063.78;5033025;28;20025;-24
2022/04/28 06:47:43;;;;;;;14.73;10.07;;;;;;;8.14;63.59;102063.03;5031268;28;20021;-24
2022/04/28 06:50:09;;;;;;;11.35;9.90;;;;;;;8.19;63.62;102060.50;5034422;28;20378;-24
2022/04/28 06:52:38;;;;;;;15.93;11.95;;;;;;;8.26;64.10;102059.81;5032031;28;20402;-24
2022/04/28 06:55:04;;;;;;;12.52;9.98;;;;;;;8.31;64.32;102067.81;5031558;28;20021;-25
2022/04/28 06:57:30;;;;;;;13.38;11.00;;;;;;;8.34;64.62;102060.88;5047634;28;20485;-24
2022/04/28 06:59:55;;;;;;;15.02;10.18;;;;;;;8.42;64.50;102063.69;5029945;28;20082;-25
2022/04/28 07:02:21;;;;;;;14.98;10.80;;;;;;;8.49;64.03;102059.44;5045308;28;20018;-25
2022/04/28 07:04:47;;;;;;;12.60;9.50;;;;;;;8.55;63.86;102064.88;5031399;28;20025;-24
2022/04/28 07:07:12;;;;;;;12.95;10.52;;;;;;;8.61;64.20;102064.13;5030523;28;20056;-24
2022/04/28 07:09:37;;;;;;;14.35;10.52;;;;;;;8.67;64.33;102063.38;5033305;28;20100;-24
2022/04/28 07:12:03;;;;;;;15.02;9.82;;;;;;;8.75;64.94;102076.66;5028390;28;20033;-25
2022/04/28 07:14:28;;;;;;;14.48;10.75;;;;;;;8.81;64.56;102072.41;5030921;28;20080;-23
2022/04/28 07:16:54;;;;;;;12.75;10.07;;;;;;;8.91;63.71;102077.88;5029699;28;20033;-24
2022/04/28 07:19:19;;;;;;;15.32;10.45;;;;;;;8.97;64.92;102075.38;5031827;28;20033;-23
2022/04/28 07:21:44;;;;;;;12.80;10.50;;;;;;;9.06;63.89;102080.81;5033325;28;20068;-23
2022/04/28 07:24:10;;;;;;;14.95;10.07;;;;;;;9.16;64.16;102078.34;5030027;28;20088;-24
2022/04/28 07:26:35;;;;;;;15.77;11.25;;;;;;;9.26;63.69;102079.41;5032605;28;20112;-23
2022/04/28 07:29:00;;;;;;;14.85;10.68;;;;;;;9.34;63.89;102083.97;5034883;28;20038;-25
2022/04/28 07:31:26;;;;;;;13.55;9.95;;;;;;;9.47;64.12;102079.81;5031479;28;20104;-24
2022/04/28 07:33:52;;;;;;;14.07;10.63;;;;;;;9.57;63.97;102086.13;5031222;28;20045;-26
2022/04/28 07:36:17;;;;;;;12.40;9.75;;;;;;;9.70;62.98;102089.00;5029956;28;20056;-23
2022/04/28 07:38:43;;;;;;;11.60;9.93;;;;;;;9.79;63.07;102081.25;5028925;28;20021;-23
2022/04/28 07:41:09;;;;;;;16.20;11.00;;;;;;;9.93;62.77;102084.09;5029332;28;20018;-23
2022/04/28 07:43:34;;;;;;;14.70;10.35;;;;;;;10.08;63.02;102094.03;5034203;28;20056;-25
2022/04/28 07:45:59;;;;;;;13.52;10.98;;;;;;;10.21;63.38;102097.72;5027949;28;20029;-24
2022/04/28 07:48:25;;;;;;;13.23;10.63;;;;;;;10.29;62.91;102097.84;5029837;28;20021;-23
2022/04/28 07:50:50;;;;;;;13.52;10.27;;;;;;;10.42;62.62;102091.00;5028692;28;20034;-24
2022/04/28 07:53:16;;;;;;;12.27;9.75;;;;;;;10.58;62.99;102097.44;5028991;28;20018;-23
2022/04/28 07:55:41;;;;;;;14.77;9.90;;;;;;;10.67;62.18;102106.31;5030118;28;20124;-23
2022/04/28 07:58:07;;;;;;;14.57;10.07;;;;;;;10.84;63.08;102102.13;5029167;28;20025;-23
2022/04/28 08:00:33;;;;;;;12.90;10.23;;;;;;;10.99;63.48;102101.47;5029989;28;20386;-24
2022/04/28 08:02:58;;;;;;;15.73;10.55;;;;;;;11.07;62.08;102101.53;5027485;28;20029;-23
2022/04/28 08:05:23;;;;;;;14.32;11.27;;;;;;;11.24;63.88;102100.84;5029871;28;20025;-23
2022/04/28 08:07:49;;;;;;;15.13;11.35;;;;;;;11.38;63.28;102096.63;5029909;28;20033;-24
2022/04/28 08:10:14;;;;;;;13.85;9.43;;;;;;;11.53;64.32;102094.97;5029926;28;20025;-24
2022/04/28 08:12:39;;;;;;;11.90;10.20;;;;;;;11.67;63.16;102095.09;5031186;28;20071;-24
2022/04/28 08:15:06;;;;;;;14.77;11.02;;;;;;;11.80;63.91;102097.00;5030031;28;20029;-23
2022/04/28 08:17:31;;;;;;;15.75;10.73;;;;;;;11.96;64.73;102097.13;5028893;28;20075;-27
2022/04/28 08:19:56;;;;;;;14.98;9.73;;;;;;;12.09;63.67;102103.44;5030482;28;20057;-26
2022/04/28 08:22:21;;;;;;;12.52;9.98;;;;;;;12.24;63.96;102101.78;5029448;28;20492;-26
2022/04/28 08:24:47;;;;;;;13.10;10.95;;;;;;;12.39;64.20;102103.63;5029863;28;20370;-25
2022/04/28 08:27:12;;;;;;;12.73;10.48;;;;;;;12.51;64.03;102101.03;5029811;28;20543;-25
2022/04/28 08:29:37;;;;;;;14.20;11.75;;;;;;;12.65;64.01;102095.84;5033510;28;20116;-25
2022/04/28 08:32:04;;;;;;;14.75;11.02;;;;;;;12.80;63.70;102099.41;5031891;28;20103;-26
2022/04/28 08:34:29;;;;;;;11.75;8.95;;;;;;;12.98;64.78;102103.03;5029485;28;20024;-26
2022/04/28 08:36:54;;;;;;;13.45;10.45;;;;;;;13.10;63.34;102105.72;5045341;28;20017;-25
2022/04/28 08:39:20;;;;;;;15.27;11.10;;;;;;;13.26;64.79;102100.47;5030704;28;20037;-25
2022/04/28 08:41:45;;;;;;;14.45;10.82;;;;;;;13.38;64.08;102103.16;5029697;28;20083;-25
2022/04/28 08:44:26;;;;;;;15.45;10.95;;;;;;;13.53;63.39;102109.38;5029569;28;20025;-26
2022/04/28 08:46:53;;;;;;;12.70;10.73;;;;;;;13.65;63.45;102109.41;5029032;28;20025;-26
2022/04/28 08:49:32;;;;;;;15.63;10.35;;;;;;;13.81;63.46;102104.13;5029810;28;20049;-25
2022/04/28 08:51:58;;;;;;;13.48;10.13;;;;;;;13.96;63.67;102100.56;5030728;28;20028;-25
2022/04/28 08:54:28;;;;;;;14.85;10.82;;;;;;;14.14;64.73;102106.75;5029494;28;20032;-26
2022/04/28 08:56:56;;;;;;;13.75;10.93;;;;;;;14.28;64.37;102109.41;5028944;28;20045;-26
2022/04/28 08:59:23;;;;;;;15.52;10.98;;;;;;;14.41;63.40;102111.16;5030381;28;20039;-26
2022/04/28 09:01:50;;;;;;;14.20;10.63;;;;;;;14.58;64.06;102107.56;5029124;28;20028;-26
2022/04/28 09:04:17;;;;;;;11.38;9.80;;;;;;;14.73;64.59;102106.63;5029186;28;20052;-26
2022/04/28 09:06:43;;;;;;;15.07;10.32;;;;;;;14.87;62.60;102096.84;5027876;28;20087;-26
2022/04/28 09:09:12;;;;;;;17.25;11.20;;;;;;;15.00;62.42;102108.31;5028143;28;20048;-25
2022/04/28 09:11:40;;;;;;;14.70;10.32;;;;;;;15.14;62.51;102118.00;5027515;28;20026;-26
2022/04/28 09:14:17;;;;;;;12.20;9.48;;;;;;;15.28;62.01;102101.97;5026710;28;20495;-26
2022/04/28 09:16:52;;;;;;;11.70;10.43;;;;;;;15.38;60.75;102100.16;5027252;28;20040;-25
2022/04/28 09:19:25;;;;;;;12.35;9.38;;;;;;;15.51;61.37;102109.78;5026554;28;20032;-26
2022/04/28 09:21:55;;;;;;;12.60;9.68;;;;;;;15.65;61.73;102104.38;5028091;28;20036;-25
2022/04/28 09:24:23;;;;;;;12.02;8.93;;;;;;;15.76;59.96;102106.06;5028558;28;20487;-26
2022/04/28 09:26:50;;;;;;;15.05;10.70;;;;;;;15.92;60.79;102109.50;5028683;28;20044;-26
2022/04/28 09:29:17;;;;;;;12.30;9.77;;;;;;;16.05;61.08;102107.63;5026443;28;20481;-26
2022/04/28 09:31:44;;;;;;;13.13;9.73;;;;;;;16.20;61.26;102111.06;5028689;28;20374;-26
2022/04/28 09:34:11;;;;;;;12.73;9.85;;;;;;;16.27;58.89;102110.06;5027363;28;20095;-26
2022/04/28 09:36:37;;;;;;;12.48;10.00;;;;;;;16.37;58.79;102108.22;5028538;28;20041;-25
2022/04/28 09:39:04;;;;;;;14.25;9.55;;;;;;;16.51;58.20;102110.75;5027265;28;20021;-27
2022/04/28 09:44:13;;;;;;;11.75;9.98;;;;;;;16.77;58.98;102104.19;5029285;28;20087;-26
2022/04/28 09:46:44;;;;;;;11.13;9.20;;;;;;;16.88;57.59;102101.41;5028102;28;20021;-26
2022/04/28 09:49:10;;;;;;;10.02;8.88;;;;;;;16.98;56.73;102100.41;5044889;28;20018;-26
2022/04/28 09:51:39;;;;;;;9.70;8.63;;;;;;;17.07;55.05;102099.41;5025238;28;20017;-26
2022/04/28 09:54:10;;;;;;;11.40;10.20;;;;;;;17.15;54.47;102097.53;5027116;28;20053;-26
2022/04/28 09:56:39;;;;;;;11.32;9.35;;;;;;;17.28;54.39;102102.69;5027201;28;20047;-25
2022/04/28 09:59:06;;;;;;;12.63;9.68;;;;;;;17.43;56.33;102088.22;5027042;28;20497;-26
2022/04/28 10:01:32;;;;;;;14.27;9.95;;;;;;;17.51;54.82;102090.78;5028682;28;20029;-26
2022/04/28 10:03:58;;;;;;;14.00;10.25;;;;;;;17.63;54.92;102092.38;5026118;28;20032;-26
2022/04/28 10:06:34;;;;;;;10.38;9.00;;;;;;;17.73;56.03;102090.44;5026654;28;20023;-26
2022/04/28 10:09:02;;;;;;;13.05;9.52;;;;;;;17.82;53.09;102087.63;5027992;28;20029;-26
2022/04/28 10:11:28;;;;;;;13.43;9.65;;;;;;;17.92;53.21;102094.56;5028387;28;20021;-26
2022/04/28 10:13:55;;;;;;;11.20;9.43;;;;;;;18.04;53.56;102100.59;5012563;28;20041;-26
2022/04/28 10:16:23;;;;;;;10.82;9.13;;;;;;;18.19;55.87;102107.47;5027862;28;20167;-25
2022/04/28 10:18:53;;;;;;;13.55;10.10;;;;;;;18.28;54.59;102101.94;5027004;28;20029;-26
2022/04/28 10:21:22;;;;;;;11.18;9.80;;;;;;;18.29;52.48;102098.41;5029478;28;20029;-26
2022/04/28 10:32:23;;;;;;;13.32;11.93;;;;;;;18.61;50.09;102103.13;5030406;28;20451;-25
2022/04/28 10:35:03;;;;;;;14.88;10.85;;;;;;;18.74;50.90;102099.28;5028830;28;20033;-26
2022/04/28 10:37:36;;;;;;;13.45;12.05;;;;;;;18.83;50.23;102098.22;5030648;28;20068;-25
2022/04/28 10:40:03;;;;;;;13.82;11.10;;;;;;;18.89;49.73;102099.88;5012632;28;20033;-26
2022/04/28 10:42:29;;;;;;;13.13;10.85;;;;;;;18.97;50.27;102096.13;5030017;28;20029;-26
2022/04/28 10:44:55;;;;;;;13.47;10.87;;;;;;;19.05;49.68;102101.31;5031247;28;20287;-25
2022/04/28 10:47:34;;;;;;;12.45;10.52;;;;;;;19.13;48.99;102106.50;5031934;28;20272;-27
2022/04/28 10:49:59;;;;;;;15.02;11.00;;;;;;;19.18;48.75;102109.09;5030450;28;20063;-25
2022/04/28 10:52:25;;;;;;;13.23;11.15;;;;;;;19.27;48.66;102098.16;5031546;28;20029;-27
2022/04/28 10:54:59;;;;;;;11.93;10.45;;;;;;;19.36;49.71;102097.97;5028596;28;20025;-26
2022/04/28 10:57:32;;;;;;;14.70;10.82;;;;;;;19.43;49.17;102098.69;5029177;28;20025;-26
2022/04/28 10:59:59;;;;;;;14.88;10.95;;;;;;;19.51;49.10;102095.84;5028679;28;20071;-26
2022/04/28 11:02:25;;;;;;;14.27;11.40;;;;;;;19.55;47.94;102096.66;5032709;28;20487;-26
2022/04/28 11:04:54;;;;;;;14.25;10.93;;;;;;;19.59;47.63;102092.97;5030930;28;20021;-26
2022/04/28 11:07:23;;;;;;;12.25;10.90;;;;;;;19.67;47.96;102090.13;5026837;28;20040;-26
2022/04/28 11:09:55;;;;;;;14.20;11.00;;;;;;;19.67;47.27;102095.47;5030390;28;20029;-27
2022/04/28 11:12:22;;;;;;;14.77;11.27;;;;;;;19.77;47.74;102090.75;5047308;28;20110;-26
2022/04/28 11:14:52;;;;;;;13.80;12.35;;;;;;;19.83;48.00;102095.94;5033270;28;20501;-26
2022/04/28 11:17:21;;;;;;;12.90;10.60;;;;;;;19.91;47.56;102090.41;5028480;28;20037;-26
2022/04/28 11:19:46;;;;;;;13.82;11.70;;;;;;;19.93;47.39;102091.22;5028322;28;20030;-26
2022/04/28 11:22:12;;;;;;;15.05;11.80;;;;;;;19.95;46.78;102090.28;5030070;28;20044;-25
2022/04/28 11:24:41;;;;;;;12.02;10.75;;;;;;;20.01;46.46;102089.28;5030359;28;20496;-26
2022/04/28 11:27:07;;;;;;;11.30;9.57;;;;;;;20.10;47.03;102088.13;5030242;28;20033;-26
2022/04/28 11:29:36;;;;;;;13.38;11.05;;;;;;;20.15;47.48;102090.69;5029912;28;20032;-26
2022/04/28 11:32:02;;;;;;;12.45;10.48;;;;;;;20.21;47.33;102087.88;5030406;28;20389;-26
2022/04/28 11:34:30;;;;;;;12.98;10.73;;;;;;;20.28;46.56;102084.09;5030375;28;20036;-26
2022/04/28 11:36:56;;;;;;;11.10;10.00;;;;;;;20.37;47.18;102077.59;5046043;28;20025;-26
2022/04/28 11:39:24;;;;;;;12.48;11.18;;;;;;;20.38;46.13;102080.22;5028781;28;20034;-25